sensor_id;sensor_type;location;lat;lon;timestamp;P1;durP1;ratioP1;P2;durP2;ratioP2
53801;SDS011;39709;53.334;6.534;2023-06-26T00:00:29;11.25;;;6.78;;
53801;SDS011;39709;53.334;6.534;2023-06-26T00:02:54;11.20;;;7.13;;
53801;SDS011;39709;53.334;6.534;2023-06-26T00:05:20;10.35;;;6.57;;
53801;SDS011;39709;53.334;6.534;2023-06-26T00:07:45;11.83;;;6.63;;
53801;SDS011;39709;53.334;6.534;2023-06-26T00:10:11;9.88;;;6.38;;
53801;SDS011;39709;53.334;6.534;2023-06-26T00:12:37;10.77;;;6.93;;
53801;SDS011;39709;53.334;6.534;2023-06-26T00:15:03;11.67;;;6.97;;
53801;SDS011;39709;53.334;6.534;2023-06-26T00:17:28;10.85;;;6.40;;
53801;SDS011;39709;53.334;6.534;2023-06-26T00:19:54;9.90;;;6.43;;
53801;SDS011;39709;53.334;6.534;2023-06-26T00:22:21;9.73;;;6.70;;
53801;SDS011;39709;53.334;6.534;2023-06-26T00:24:46;10.60;;;6.50;;
53801;SDS011;39709;53.334;6.534;2023-06-26T00:27:12;11.07;;;6.47;;
53801;SDS011;39709;53.334;6.534;2023-06-26T00:29:38;10.25;;;6.80;;
53801;SDS011;39709;53.334;6.534;2023-06-26T00:32:04;14.90;;;6.90;;
53801;SDS011;39709;53.334;6.534;2023-06-26T00:34:31;10.25;;;7.00;;
53801;SDS011;39709;53.334;6.534;2023-06-26T00:36:56;10.80;;;6.68;;
53801;SDS011;39709;53.334;6.534;2023-06-26T00:39:22;12.17;;;6.90;;
53801;SDS011;39709;53.334;6.534;2023-06-26T00:41:51;10.68;;;7.28;;
53801;SDS011;39709;53.334;6.534;2023-06-26T00:44:18;11.48;;;7.72;;
53801;SDS011;39709;53.334;6.534;2023-06-26T00:46:44;10.87;;;7.43;;
53801;SDS011;39709;53.334;6.534;2023-06-26T00:49:10;11.02;;;6.80;;
53801;SDS011;39709;53.334;6.534;2023-06-26T00:51:37;10.57;;;6.68;;
53801;SDS011;39709;53.334;6.534;2023-06-26T00:54:04;10.13;;;7.10;;
53801;SDS011;39709;53.334;6.534;2023-06-26T00:56:30;12.17;;;6.80;;
53801;SDS011;39709;53.334;6.534;2023-06-26T00:58:56;11.48;;;7.82;;
53801;SDS011;39709;53.334;6.534;2023-06-26T01:01:22;10.32;;;7.03;;
53801;SDS011;39709;53.334;6.534;2023-06-26T01:03:50;11.45;;;6.97;;
53801;SDS011;39709;53.334;6.534;2023-06-26T01:06:18;11.43;;;8.00;;
53801;SDS011;39709;53.334;6.534;2023-06-26T01:08:45;11.55;;;7.45;;
53801;SDS011;39709;53.334;6.534;2023-06-26T01:11:12;9.82;;;7.05;;
53801;SDS011;39709;53.334;6.534;2023-06-26T01:13:39;14.52;;;7.18;;
53801;SDS011;39709;53.334;6.534;2023-06-26T01:16:08;11.63;;;7.28;;
53801;SDS011;39709;53.334;6.534;2023-06-26T01:18:35;11.13;;;7.20;;
53801;SDS011;39709;53.334;6.534;2023-06-26T01:21:08;11.65;;;7.55;;
53801;SDS011;39709;53.334;6.534;2023-06-26T01:23:40;11.07;;;7.60;;
53801;SDS011;39709;53.334;6.534;2023-06-26T01:26:24;10.65;;;7.70;;
53801;SDS011;39709;53.334;6.534;2023-06-26T01:28:53;11.40;;;7.25;;
53801;SDS011;39709;53.334;6.534;2023-06-26T01:31:22;11.27;;;8.00;;
53801;SDS011;39709;53.334;6.534;2023-06-26T01:41:58;11.35;;;6.80;;
53801;SDS011;39709;53.334;6.534;2023-06-26T01:47:33;11.02;;;7.70;;
53801;SDS011;39709;53.334;6.534;2023-06-26T01:50:04;10.45;;;7.00;;
53801;SDS011;39709;53.334;6.534;2023-06-26T01:55:25;10.07;;;6.60;;
53801;SDS011;39709;53.334;6.534;2023-06-26T01:58:01;11.90;;;6.73;;
53801;SDS011;39709;53.334;6.534;2023-06-26T02:00:27;10.43;;;6.68;;
53801;SDS011;39709;53.334;6.534;2023-06-26T02:02:53;10.43;;;7.00;;
53801;SDS011;39709;53.334;6.534;2023-06-26T02:05:19;9.50;;;6.13;;
53801;SDS011;39709;53.334;6.534;2023-06-26T02:07:45;10.57;;;7.67;;
53801;SDS011;39709;53.334;6.534;2023-06-26T02:10:11;11.30;;;7.15;;
53801;SDS011;39709;53.334;6.534;2023-06-26T02:12:37;11.27;;;7.43;;
53801;SDS011;39709;53.334;6.534;2023-06-26T02:15:04;10.90;;;7.00;;
53801;SDS011;39709;53.334;6.534;2023-06-26T02:17:30;10.70;;;7.43;;
53801;SDS011;39709;53.334;6.534;2023-06-26T02:19:56;10.70;;;6.80;;
53801;SDS011;39709;53.334;6.534;2023-06-26T02:22:22;12.13;;;7.60;;
53801;SDS011;39709;53.334;6.534;2023-06-26T02:24:47;12.32;;;7.53;;
53801;SDS011;39709;53.334;6.534;2023-06-26T02:27:13;13.30;;;7.70;;
53801;SDS011;39709;53.334;6.534;2023-06-26T02:29:39;11.88;;;7.82;;
53801;SDS011;39709;53.334;6.534;2023-06-26T02:32:05;10.90;;;7.27;;
53801;SDS011;39709;53.334;6.534;2023-06-26T02:34:32;10.88;;;6.57;;
53801;SDS011;39709;53.334;6.534;2023-06-26T02:36:58;12.50;;;7.28;;
53801;SDS011;39709;53.334;6.534;2023-06-26T02:39:25;11.60;;;6.60;;
53801;SDS011;39709;53.334;6.534;2023-06-26T02:41:51;11.02;;;6.88;;
53801;SDS011;39709;53.334;6.534;2023-06-26T02:44:17;9.43;;;6.00;;
53801;SDS011;39709;53.334;6.534;2023-06-26T02:46:43;11.43;;;6.60;;
53801;SDS011;39709;53.334;6.534;2023-06-26T02:49:09;10.45;;;7.20;;
53801;SDS011;39709;53.334;6.534;2023-06-26T02:51:35;10.00;;;6.33;;
53801;SDS011;39709;53.334;6.534;2023-06-26T02:54:01;11.05;;;6.97;;
53801;SDS011;39709;53.334;6.534;2023-06-26T02:56:26;11.55;;;6.35;;
53801;SDS011;39709;53.334;6.534;2023-06-26T02:58:54;9.97;;;6.77;;
53801;SDS011;39709;53.334;6.534;2023-06-26T03:01:20;10.82;;;7.00;;
53801;SDS011;39709;53.334;6.534;2023-06-26T03:03:46;11.35;;;7.43;;
53801;SDS011;39709;53.334;6.534;2023-06-26T03:06:12;10.23;;;6.72;;
53801;SDS011;39709;53.334;6.534;2023-06-26T03:08:38;11.40;;;6.97;;
53801;SDS011;39709;53.334;6.534;2023-06-26T03:11:05;9.15;;;6.07;;
53801;SDS011;39709;53.334;6.534;2023-06-26T03:13:32;12.32;;;7.47;;
53801;SDS011;39709;53.334;6.534;2023-06-26T03:15:58;10.63;;;7.22;;
53801;SDS011;39709;53.334;6.534;2023-06-26T03:18:24;12.70;;;7.90;;
53801;SDS011;39709;53.334;6.534;2023-06-26T03:20:50;10.48;;;7.35;;
53801;SDS011;39709;53.334;6.534;2023-06-26T03:23:15;10.07;;;7.07;;
53801;SDS011;39709;53.334;6.534;2023-06-26T03:25:41;10.25;;;7.00;;
53801;SDS011;39709;53.334;6.534;2023-06-26T03:28:07;10.67;;;6.80;;
53801;SDS011;39709;53.334;6.534;2023-06-26T03:30:32;12.65;;;7.38;;
53801;SDS011;39709;53.334;6.534;2023-06-26T03:32:58;10.90;;;6.53;;
53801;SDS011;39709;53.334;6.534;2023-06-26T03:35:24;11.13;;;7.70;;
53801;SDS011;39709;53.334;6.534;2023-06-26T03:37:49;11.13;;;7.70;;
53801;SDS011;39709;53.334;6.534;2023-06-26T03:40:15;11.15;;;6.60;;
53801;SDS011;39709;53.334;6.534;2023-06-26T03:42:42;10.73;;;5.00;;
53801;SDS011;39709;53.334;6.534;2023-06-26T03:45:07;12.77;;;8.10;;
53801;SDS011;39709;53.334;6.534;2023-06-26T03:47:33;10.53;;;6.60;;
53801;SDS011;39709;53.334;6.534;2023-06-26T03:49:59;11.98;;;7.78;;
53801;SDS011;39709;53.334;6.534;2023-06-26T03:52:24;10.57;;;7.30;;
53801;SDS011;39709;53.334;6.534;2023-06-26T03:54:50;11.50;;;7.60;;
53801;SDS011;39709;53.334;6.534;2023-06-26T03:57:16;11.70;;;7.80;;
53801;SDS011;39709;53.334;6.534;2023-06-26T03:59:42;11.48;;;7.60;;
53801;SDS011;39709;53.334;6.534;2023-06-26T04:02:07;12.20;;;7.20;;
53801;SDS011;39709;53.334;6.534;2023-06-26T04:04:33;11.37;;;8.07;;
53801;SDS011;39709;53.334;6.534;2023-06-26T04:06:58;11.38;;;7.70;;
53801;SDS011;39709;53.334;6.534;2023-06-26T04:09:24;10.50;;;7.30;;
53801;SDS011;39709;53.334;6.534;2023-06-26T04:11:50;12.85;;;8.27;;
53801;SDS011;39709;53.334;6.534;2023-06-26T04:14:16;11.57;;;7.85;;
53801;SDS011;39709;53.334;6.534;2023-06-26T04:16:42;13.20;;;8.13;;
53801;SDS011;39709;53.334;6.534;2023-06-26T04:19:08;12.88;;;7.25;;
53801;SDS011;39709;53.334;6.534;2023-06-26T04:21:35;14.57;;;8.68;;
53801;SDS011;39709;53.334;6.534;2023-06-26T04:24:00;11.07;;;7.60;;
53801;SDS011;39709;53.334;6.534;2023-06-26T04:26:26;9.68;;;5.40;;
53801;SDS011;39709;53.334;6.534;2023-06-26T04:28:53;9.82;;;6.15;;
53801;SDS011;39709;53.334;6.534;2023-06-26T04:31:19;10.27;;;6.63;;
53801;SDS011;39709;53.334;6.534;2023-06-26T04:33:45;12.57;;;7.10;;
53801;SDS011;39709;53.334;6.534;2023-06-26T04:36:15;21.77;;;7.50;;
53801;SDS011;39709;53.334;6.534;2023-06-26T04:38:42;12.57;;;6.97;;
53801;SDS011;39709;53.334;6.534;2023-06-26T04:41:07;13.18;;;8.93;;
53801;SDS011;39709;53.334;6.534;2023-06-26T04:43:33;11.68;;;7.38;;
53801;SDS011;39709;53.334;6.534;2023-06-26T04:45:59;9.73;;;4.60;;
53801;SDS011;39709;53.334;6.534;2023-06-26T04:48:27;10.23;;;5.15;;
53801;SDS011;39709;53.334;6.534;2023-06-26T04:50:55;13.70;;;6.00;;
53801;SDS011;39709;53.334;6.534;2023-06-26T04:53:21;11.65;;;5.22;;
53801;SDS011;39709;53.334;6.534;2023-06-26T04:55:49;13.25;;;6.05;;
53801;SDS011;39709;53.334;6.534;2023-06-26T04:58:15;11.18;;;5.53;;
53801;SDS011;39709;53.334;6.534;2023-06-26T05:00:41;11.65;;;5.45;;
53801;SDS011;39709;53.334;6.534;2023-06-26T05:03:08;9.57;;;4.53;;
53801;SDS011;39709;53.334;6.534;2023-06-26T05:05:34;13.63;;;5.50;;
53801;SDS011;39709;53.334;6.534;2023-06-26T05:08:12;13.10;;;6.10;;
53801;SDS011;39709;53.334;6.534;2023-06-26T05:10:39;10.80;;;5.78;;
53801;SDS011;39709;53.334;6.534;2023-06-26T05:13:05;9.13;;;4.70;;
53801;SDS011;39709;53.334;6.534;2023-06-26T05:15:30;12.33;;;5.30;;
53801;SDS011;39709;53.334;6.534;2023-06-26T05:17:56;13.45;;;6.90;;
53801;SDS011;39709;53.334;6.534;2023-06-26T05:20:22;14.13;;;7.27;;
53801;SDS011;39709;53.334;6.534;2023-06-26T05:22:47;14.55;;;6.95;;
53801;SDS011;39709;53.334;6.534;2023-06-26T05:25:14;17.50;;;8.00;;
53801;SDS011;39709;53.334;6.534;2023-06-26T05:27:40;14.05;;;6.55;;
53801;SDS011;39709;53.334;6.534;2023-06-26T05:30:07;15.45;;;5.40;;
53801;SDS011;39709;53.334;6.534;2023-06-26T05:32:34;9.20;;;3.65;;
53801;SDS011;39709;53.334;6.534;2023-06-26T05:35:02;12.65;;;4.07;;
53801;SDS011;39709;53.334;6.534;2023-06-26T05:37:31;14.80;;;3.30;;
53801;SDS011;39709;53.334;6.534;2023-06-26T05:39:58;12.73;;;3.47;;
53801;SDS011;39709;53.334;6.534;2023-06-26T05:42:25;9.20;;;2.70;;
53801;SDS011;39709;53.334;6.534;2023-06-26T05:44:54;13.80;;;3.30;;
53801;SDS011;39709;53.334;6.534;2023-06-26T05:47:20;11.70;;;3.40;;
53801;SDS011;39709;53.334;6.534;2023-06-26T05:49:46;12.13;;;2.90;;
53801;SDS011;39709;53.334;6.534;2023-06-26T05:52:12;10.80;;;3.30;;
53801;SDS011;39709;53.334;6.534;2023-06-26T05:54:38;12.23;;;2.88;;
53801;SDS011;39709;53.334;6.534;2023-06-26T05:57:04;8.55;;;2.95;;
53801;SDS011;39709;53.334;6.534;2023-06-26T05:59:33;12.80;;;2.97;;
53801;SDS011;39709;53.334;6.534;2023-06-26T06:02:01;11.70;;;2.83;;
53801;SDS011;39709;53.334;6.534;2023-06-26T06:04:27;9.40;;;2.40;;
53801;SDS011;39709;53.334;6.534;2023-06-26T06:06:53;10.73;;;2.30;;
53801;SDS011;39709;53.334;6.534;2023-06-26T06:09:19;10.47;;;2.07;;
53801;SDS011;39709;53.334;6.534;2023-06-26T06:11:44;10.73;;;2.47;;
53801;SDS011;39709;53.334;6.534;2023-06-26T06:14:10;11.82;;;2.30;;
53801;SDS011;39709;53.334;6.534;2023-06-26T06:16:36;12.93;;;2.60;;
53801;SDS011;39709;53.334;6.534;2023-06-26T06:19:01;10.45;;;1.88;;
53801;SDS011;39709;53.334;6.534;2023-06-26T06:21:28;9.37;;;2.00;;
53801;SDS011;39709;53.334;6.534;2023-06-26T06:23:54;10.07;;;2.08;;
53801;SDS011;39709;53.334;6.534;2023-06-26T06:26:19;9.37;;;1.70;;
53801;SDS011;39709;53.334;6.534;2023-06-26T06:28:45;10.32;;;2.20;;
53801;SDS011;39709;53.334;6.534;2023-06-26T06:31:11;7.27;;;1.47;;
53801;SDS011;39709;53.334;6.534;2023-06-26T06:33:36;10.05;;;1.92;;
53801;SDS011;39709;53.334;6.534;2023-06-26T06:36:03;9.20;;;2.13;;
53801;SDS011;39709;53.334;6.534;2023-06-26T06:38:29;7.82;;;1.75;;
53801;SDS011;39709;53.334;6.534;2023-06-26T06:40:55;8.07;;;2.20;;
53801;SDS011;39709;53.334;6.534;2023-06-26T06:43:21;8.32;;;1.80;;
53801;SDS011;39709;53.334;6.534;2023-06-26T06:45:46;9.03;;;1.83;;
53801;SDS011;39709;53.334;6.534;2023-06-26T06:48:12;7.55;;;2.03;;
53801;SDS011;39709;53.334;6.534;2023-06-26T06:50:37;6.37;;;1.47;;
53801;SDS011;39709;53.334;6.534;2023-06-26T06:53:03;7.70;;;1.63;;
53801;SDS011;39709;53.334;6.534;2023-06-26T06:55:29;6.88;;;1.50;;
53801;SDS011;39709;53.334;6.534;2023-06-26T06:57:54;9.53;;;1.30;;
53801;SDS011;39709;53.334;6.534;2023-06-26T07:00:20;9.07;;;1.77;;
53801;SDS011;39709;53.334;6.534;2023-06-26T07:02:46;9.13;;;1.60;;
53801;SDS011;39709;53.334;6.534;2023-06-26T07:05:12;8.68;;;1.95;;
53801;SDS011;39709;53.334;6.534;2023-06-26T07:07:38;7.53;;;1.40;;
53801;SDS011;39709;53.334;6.534;2023-06-26T07:10:05;7.18;;;1.00;;
53801;SDS011;39709;53.334;6.534;2023-06-26T07:12:32;6.35;;;1.17;;
53801;SDS011;39709;53.334;6.534;2023-06-26T07:14:59;6.00;;;1.50;;
53801;SDS011;39709;53.334;6.534;2023-06-26T07:17:29;4.90;;;1.23;;
53801;SDS011;39709;53.334;6.534;2023-06-26T07:19:55;5.93;;;1.17;;
53801;SDS011;39709;53.334;6.534;2023-06-26T07:22:21;4.88;;;1.00;;
53801;SDS011;39709;53.334;6.534;2023-06-26T07:24:47;6.87;;;1.00;;
53801;SDS011;39709;53.334;6.534;2023-06-26T07:27:14;5.88;;;1.02;;
53801;SDS011;39709;53.334;6.534;2023-06-26T07:29:44;6.20;;;1.02;;
53801;SDS011;39709;53.334;6.534;2023-06-26T07:32:09;8.38;;;1.38;;
53801;SDS011;39709;53.334;6.534;2023-06-26T07:34:35;6.57;;;0.90;;
53801;SDS011;39709;53.334;6.534;2023-06-26T07:37:01;6.05;;;0.93;;
53801;SDS011;39709;53.334;6.534;2023-06-26T07:39:27;5.05;;;1.35;;
53801;SDS011;39709;53.334;6.534;2023-06-26T07:41:53;7.27;;;1.43;;
53801;SDS011;39709;53.334;6.534;2023-06-26T07:44:19;5.95;;;1.00;;
53801;SDS011;39709;53.334;6.534;2023-06-26T07:46:44;8.13;;;1.10;;
53801;SDS011;39709;53.334;6.534;2023-06-26T07:49:11;5.10;;;0.85;;
53801;SDS011;39709;53.334;6.534;2023-06-26T07:51:37;4.57;;;0.63;;
53801;SDS011;39709;53.334;6.534;2023-06-26T07:54:02;5.67;;;0.97;;
53801;SDS011;39709;53.334;6.534;2023-06-26T07:56:28;8.32;;;1.25;;
53801;SDS011;39709;53.334;6.534;2023-06-26T07:58:54;6.83;;;0.90;;
53801;SDS011;39709;53.334;6.534;2023-06-26T08:01:19;7.03;;;1.13;;
53801;SDS011;39709;53.334;6.534;2023-06-26T08:03:45;6.70;;;1.00;;
53801;SDS011;39709;53.334;6.534;2023-06-26T08:06:11;9.85;;;1.33;;
53801;SDS011;39709;53.334;6.534;2023-06-26T08:08:36;6.43;;;1.00;;
53801;SDS011;39709;53.334;6.534;2023-06-26T08:11:02;4.88;;;0.80;;
53801;SDS011;39709;53.334;6.534;2023-06-26T08:13:28;7.63;;;1.33;;
53801;SDS011;39709;53.334;6.534;2023-06-26T08:15:53;6.90;;;1.13;;
53801;SDS011;39709;53.334;6.534;2023-06-26T08:18:22;5.53;;;0.83;;
53801;SDS011;39709;53.334;6.534;2023-06-26T08:20:49;4.40;;;1.05;;
53801;SDS011;39709;53.334;6.534;2023-06-26T08:23:14;4.15;;;1.00;;
53801;SDS011;39709;53.334;6.534;2023-06-26T08:25:40;4.63;;;0.80;;
53801;SDS011;39709;53.334;6.534;2023-06-26T08:28:05;5.65;;;1.08;;
53801;SDS011;39709;53.334;6.534;2023-06-26T08:30:32;4.50;;;1.03;;
53801;SDS011;39709;53.334;6.534;2023-06-26T08:32:57;5.07;;;1.08;;
53801;SDS011;39709;53.334;6.534;2023-06-26T08:35:23;5.87;;;1.17;;
53801;SDS011;39709;53.334;6.534;2023-06-26T08:37:49;5.75;;;1.27;;
53801;SDS011;39709;53.334;6.534;2023-06-26T08:40:18;4.63;;;1.02;;
53801;SDS011;39709;53.334;6.534;2023-06-26T08:42:44;7.27;;;1.30;;
53801;SDS011;39709;53.334;6.534;2023-06-26T08:45:10;4.25;;;0.90;;
53801;SDS011;39709;53.334;6.534;2023-06-26T08:47:36;5.68;;;0.98;;
53801;SDS011;39709;53.334;6.534;2023-06-26T08:50:12;5.80;;;1.10;;
53801;SDS011;39709;53.334;6.534;2023-06-26T08:55:45;6.35;;;0.90;;
53801;SDS011;39709;53.334;6.534;2023-06-26T08:58:14;6.40;;;1.20;;
53801;SDS011;39709;53.334;6.534;2023-06-26T09:00:40;6.00;;;0.98;;
53801;SDS011;39709;53.334;6.534;2023-06-26T09:03:06;5.68;;;1.05;;
53801;SDS011;39709;53.334;6.534;2023-06-26T09:05:33;6.80;;;1.47;;
53801;SDS011;39709;53.334;6.534;2023-06-26T09:08:00;6.28;;;1.20;;
53801;SDS011;39709;53.334;6.534;2023-06-26T09:10:25;5.13;;;1.50;;
53801;SDS011;39709;53.334;6.534;2023-06-26T09:12:51;3.87;;;1.10;;
53801;SDS011;39709;53.334;6.534;2023-06-26T09:15:21;5.45;;;1.15;;
53801;SDS011;39709;53.334;6.534;2023-06-26T09:17:47;3.55;;;1.17;;
53801;SDS011;39709;53.334;6.534;2023-06-26T09:20:13;5.80;;;1.40;;
53801;SDS011;39709;53.334;6.534;2023-06-26T09:22:41;5.50;;;1.05;;
53801;SDS011;39709;53.334;6.534;2023-06-26T09:25:09;2.75;;;0.77;;
53801;SDS011;39709;53.334;6.534;2023-06-26T09:27:38;5.88;;;1.30;;
53801;SDS011;39709;53.334;6.534;2023-06-26T09:30:04;5.63;;;0.97;;
53801;SDS011;39709;53.334;6.534;2023-06-26T09:32:35;4.75;;;1.13;;
53801;SDS011;39709;53.334;6.534;2023-06-26T09:35:04;4.28;;;1.10;;
53801;SDS011;39709;53.334;6.534;2023-06-26T09:37:30;4.13;;;1.00;;
53801;SDS011;39709;53.334;6.534;2023-06-26T09:39:55;5.47;;;1.17;;
53801;SDS011;39709;53.334;6.534;2023-06-26T09:42:21;5.30;;;1.77;;
53801;SDS011;39709;53.334;6.534;2023-06-26T09:44:48;3.40;;;0.90;;
53801;SDS011;39709;53.334;6.534;2023-06-26T09:47:20;6.30;;;1.10;;
53801;SDS011;39709;53.334;6.534;2023-06-26T09:49:46;13.77;;;1.30;;
53801;SDS011;39709;53.334;6.534;2023-06-26T09:52:15;6.50;;;1.83;;
53801;SDS011;39709;53.334;6.534;2023-06-26T09:54:42;4.25;;;1.30;;
53801;SDS011;39709;53.334;6.534;2023-06-26T09:57:11;5.35;;;1.38;;
53801;SDS011;39709;53.334;6.534;2023-06-26T09:59:39;6.57;;;1.10;;
53801;SDS011;39709;53.334;6.534;2023-06-26T10:02:05;3.10;;;0.90;;
53801;SDS011;39709;53.334;6.534;2023-06-26T10:04:32;3.70;;;1.13;;
53801;SDS011;39709;53.334;6.534;2023-06-26T10:07:01;4.65;;;1.63;;
53801;SDS011;39709;53.334;6.534;2023-06-26T10:09:29;3.88;;;0.80;;
53801;SDS011;39709;53.334;6.534;2023-06-26T10:11:57;5.38;;;1.70;;
53801;SDS011;39709;53.334;6.534;2023-06-26T10:14:26;6.22;;;1.60;;
53801;SDS011;39709;53.334;6.534;2023-06-26T10:16:58;6.43;;;1.43;;
53801;SDS011;39709;53.334;6.534;2023-06-26T10:19:26;4.90;;;1.45;;
53801;SDS011;39709;53.334;6.534;2023-06-26T10:21:53;10.77;;;1.52;;
53801;SDS011;39709;53.334;6.534;2023-06-26T10:24:20;5.75;;;1.50;;
53801;SDS011;39709;53.334;6.534;2023-06-26T10:26:49;6.57;;;1.90;;
53801;SDS011;39709;53.334;6.534;2023-06-26T10:29:17;6.27;;;2.13;;
53801;SDS011;39709;53.334;6.534;2023-06-26T10:31:47;5.93;;;1.83;;
53801;SDS011;39709;53.334;6.534;2023-06-26T10:34:16;5.20;;;1.45;;
53801;SDS011;39709;53.334;6.534;2023-06-26T10:36:42;6.88;;;2.25;;
53801;SDS011;39709;53.334;6.534;2023-06-26T10:39:08;5.90;;;1.80;;
53801;SDS011;39709;53.334;6.534;2023-06-26T10:41:38;5.72;;;1.80;;
53801;SDS011;39709;53.334;6.534;2023-06-26T10:46:52;5.27;;;1.80;;
53801;SDS011;39709;53.334;6.534;2023-06-26T10:49:19;7.18;;;1.95;;
53801;SDS011;39709;53.334;6.534;2023-06-26T10:51:49;6.28;;;1.63;;
53801;SDS011;39709;53.334;6.534;2023-06-26T10:54:16;8.88;;;2.00;;
53801;SDS011;39709;53.334;6.534;2023-06-26T10:56:44;5.32;;;1.90;;
53801;SDS011;39709;53.334;6.534;2023-06-26T10:59:15;6.83;;;1.90;;
53801;SDS011;39709;53.334;6.534;2023-06-26T11:01:46;6.50;;;1.70;;
53801;SDS011;39709;53.334;6.534;2023-06-26T11:04:21;5.35;;;1.75;;
53801;SDS011;39709;53.334;6.534;2023-06-26T11:07:14;6.22;;;1.85;;
53801;SDS011;39709;53.334;6.534;2023-06-26T11:09:53;5.63;;;1.90;;
53801;SDS011;39709;53.334;6.534;2023-06-26T11:12:35;6.90;;;1.97;;
53801;SDS011;39709;53.334;6.534;2023-06-26T11:15:15;6.57;;;1.63;;
53801;SDS011;39709;53.334;6.534;2023-06-26T11:17:42;9.15;;;1.95;;
53801;SDS011;39709;53.334;6.534;2023-06-26T11:20:09;4.90;;;1.30;;
53801;SDS011;39709;53.334;6.534;2023-06-26T11:22:37;5.05;;;1.20;;
53801;SDS011;39709;53.334;6.534;2023-06-26T11:25:05;7.00;;;1.33;;
53801;SDS011;39709;53.334;6.534;2023-06-26T11:27:41;6.63;;;1.35;;
53801;SDS011;39709;53.334;6.534;2023-06-26T11:30:08;4.75;;;1.23;;
53801;SDS011;39709;53.334;6.534;2023-06-26T11:32:48;5.55;;;1.20;;
53801;SDS011;39709;53.334;6.534;2023-06-26T11:35:21;9.97;;;1.63;;
53801;SDS011;39709;53.334;6.534;2023-06-26T11:37:58;9.43;;;1.30;;
53801;SDS011;39709;53.334;6.534;2023-06-26T11:40:29;5.72;;;1.00;;
53801;SDS011;39709;53.334;6.534;2023-06-26T11:42:58;6.22;;;1.40;;
53801;SDS011;39709;53.334;6.534;2023-06-26T11:45:25;6.18;;;0.90;;
53801;SDS011;39709;53.334;6.534;2023-06-26T11:47:58;6.20;;;1.20;;
53801;SDS011;39709;53.334;6.534;2023-06-26T11:50:25;6.68;;;1.33;;
53801;SDS011;39709;53.334;6.534;2023-06-26T11:52:54;9.88;;;1.73;;
53801;SDS011;39709;53.334;6.534;2023-06-26T11:55:22;7.20;;;1.60;;
53801;SDS011;39709;53.334;6.534;2023-06-26T11:57:49;8.63;;;1.73;;
53801;SDS011;39709;53.334;6.534;2023-06-26T12:00:16;8.13;;;1.57;;
53801;SDS011;39709;53.334;6.534;2023-06-26T12:02:45;5.43;;;1.80;;
53801;SDS011;39709;53.334;6.534;2023-06-26T12:05:14;7.63;;;1.80;;
53801;SDS011;39709;53.334;6.534;2023-06-26T12:07:42;6.32;;;1.23;;
53801;SDS011;39709;53.334;6.534;2023-06-26T12:10:09;7.55;;;1.35;;
53801;SDS011;39709;53.334;6.534;2023-06-26T12:12:36;8.10;;;1.40;;
53801;SDS011;39709;53.334;6.534;2023-06-26T12:15:03;5.82;;;1.15;;
53801;SDS011;39709;53.334;6.534;2023-06-26T12:17:30;5.10;;;1.20;;
53801;SDS011;39709;53.334;6.534;2023-06-26T12:19:56;4.20;;;1.30;;
53801;SDS011;39709;53.334;6.534;2023-06-26T12:22:21;6.28;;;1.35;;
53801;SDS011;39709;53.334;6.534;2023-06-26T12:24:47;5.13;;;1.17;;
53801;SDS011;39709;53.334;6.534;2023-06-26T12:27:14;5.47;;;1.40;;
53801;SDS011;39709;53.334;6.534;2023-06-26T12:29:45;6.55;;;1.40;;
53801;SDS011;39709;53.334;6.534;2023-06-26T12:32:15;7.18;;;1.30;;
53801;SDS011;39709;53.334;6.534;2023-06-26T12:34:41;6.33;;;1.53;;
53801;SDS011;39709;53.334;6.534;2023-06-26T12:37:13;4.17;;;1.20;;
53801;SDS011;39709;53.334;6.534;2023-06-26T12:42:28;7.05;;;1.73;;
53801;SDS011;39709;53.334;6.534;2023-06-26T12:44:57;4.63;;;0.93;;
53801;SDS011;39709;53.334;6.534;2023-06-26T12:47:24;6.13;;;1.20;;
53801;SDS011;39709;53.334;6.534;2023-06-26T12:49:52;4.53;;;1.15;;
53801;SDS011;39709;53.334;6.534;2023-06-26T12:52:18;6.10;;;0.93;;
53801;SDS011;39709;53.334;6.534;2023-06-26T12:54:45;3.47;;;1.00;;
53801;SDS011;39709;53.334;6.534;2023-06-26T12:57:12;5.97;;;1.20;;
53801;SDS011;39709;53.334;6.534;2023-06-26T12:59:41;4.70;;;0.80;;
53801;SDS011;39709;53.334;6.534;2023-06-26T13:02:08;6.22;;;1.20;;
53801;SDS011;39709;53.334;6.534;2023-06-26T13:04:34;7.05;;;1.48;;
53801;SDS011;39709;53.334;6.534;2023-06-26T13:07:00;5.72;;;1.50;;
53801;SDS011;39709;53.334;6.534;2023-06-26T13:09:26;5.73;;;1.30;;
53801;SDS011;39709;53.334;6.534;2023-06-26T13:11:58;7.20;;;1.00;;
53801;SDS011;39709;53.334;6.534;2023-06-26T13:14:24;4.05;;;1.10;;
53801;SDS011;39709;53.334;6.534;2023-06-26T13:16:51;9.90;;;1.20;;
53801;SDS011;39709;53.334;6.534;2023-06-26T13:19:16;9.73;;;1.60;;
53801;SDS011;39709;53.334;6.534;2023-06-26T13:21:42;6.97;;;1.10;;
53801;SDS011;39709;53.334;6.534;2023-06-26T13:24:08;5.45;;;1.00;;
53801;SDS011;39709;53.334;6.534;2023-06-26T13:26:34;5.73;;;1.57;;
53801;SDS011;39709;53.334;6.534;2023-06-26T13:29:00;4.63;;;1.40;;
53801;SDS011;39709;53.334;6.534;2023-06-26T13:31:26;4.72;;;1.10;;
53801;SDS011;39709;53.334;6.534;2023-06-26T13:33:52;7.45;;;1.75;;
53801;SDS011;39709;53.334;6.534;2023-06-26T13:36:18;6.07;;;1.47;;
53801;SDS011;39709;53.334;6.534;2023-06-26T13:38:44;7.97;;;1.40;;
53801;SDS011;39709;53.334;6.534;2023-06-26T13:41:11;9.07;;;1.70;;
53801;SDS011;39709;53.334;6.534;2023-06-26T13:43:37;6.67;;;1.70;;
53801;SDS011;39709;53.334;6.534;2023-06-26T13:46:03;6.60;;;1.40;;
53801;SDS011;39709;53.334;6.534;2023-06-26T13:48:28;6.93;;;1.73;;
53801;SDS011;39709;53.334;6.534;2023-06-26T13:50:54;6.30;;;1.20;;
53801;SDS011;39709;53.334;6.534;2023-06-26T13:53:21;8.10;;;1.50;;
53801;SDS011;39709;53.334;6.534;2023-06-26T13:55:47;9.05;;;1.73;;
53801;SDS011;39709;53.334;6.534;2023-06-26T13:58:13;6.80;;;1.50;;
53801;SDS011;39709;53.334;6.534;2023-06-26T14:00:39;7.18;;;1.42;;
53801;SDS011;39709;53.334;6.534;2023-06-26T14:03:06;8.45;;;1.65;;
53801;SDS011;39709;53.334;6.534;2023-06-26T14:05:35;9.40;;;1.73;;
53801;SDS011;39709;53.334;6.534;2023-06-26T14:08:02;6.55;;;1.58;;
53801;SDS011;39709;53.334;6.534;2023-06-26T14:10:29;6.60;;;1.40;;
53801;SDS011;39709;53.334;6.534;2023-06-26T14:12:55;9.65;;;1.60;;
53801;SDS011;39709;53.334;6.534;2023-06-26T14:15:21;6.65;;;1.40;;
53801;SDS011;39709;53.334;6.534;2023-06-26T14:17:47;7.87;;;1.50;;
53801;SDS011;39709;53.334;6.534;2023-06-26T14:20:15;6.75;;;1.58;;
53801;SDS011;39709;53.334;6.534;2023-06-26T14:22:42;5.68;;;1.83;;
53801;SDS011;39709;53.334;6.534;2023-06-26T14:25:13;5.93;;;1.08;;
53801;SDS011;39709;53.334;6.534;2023-06-26T14:27:39;7.83;;;1.40;;
53801;SDS011;39709;53.334;6.534;2023-06-26T14:30:05;7.15;;;1.42;;
53801;SDS011;39709;53.334;6.534;2023-06-26T14:32:32;9.73;;;1.40;;
53801;SDS011;39709;53.334;6.534;2023-06-26T14:34:58;8.45;;;1.30;;
53801;SDS011;39709;53.334;6.534;2023-06-26T14:37:24;5.23;;;1.00;;
53801;SDS011;39709;53.334;6.534;2023-06-26T14:39:50;8.00;;;1.10;;
53801;SDS011;39709;53.334;6.534;2023-06-26T14:42:16;6.45;;;1.38;;
53801;SDS011;39709;53.334;6.534;2023-06-26T14:44:42;7.17;;;1.30;;
53801;SDS011;39709;53.334;6.534;2023-06-26T14:47:08;4.68;;;1.10;;
53801;SDS011;39709;53.334;6.534;2023-06-26T14:49:33;4.37;;;1.30;;
53801;SDS011;39709;53.334;6.534;2023-06-26T14:51:59;6.80;;;1.45;;
53801;SDS011;39709;53.334;6.534;2023-06-26T14:54:25;6.20;;;1.50;;
53801;SDS011;39709;53.334;6.534;2023-06-26T14:56:50;5.57;;;1.65;;
53801;SDS011;39709;53.334;6.534;2023-06-26T14:59:16;4.13;;;1.10;;
53801;SDS011;39709;53.334;6.534;2023-06-26T15:01:42;6.43;;;1.63;;
53801;SDS011;39709;53.334;6.534;2023-06-26T15:04:08;3.23;;;0.73;;